createdAt,value
2023-01-30T09:44:19.271Z,0.57
2023-01-30T09:46:30.899Z,0.57
2023-01-30T09:48:48.320Z,-0.10
2023-01-30T09:51:19.674Z,-0.01
2023-01-30T09:53:28.160Z,-0.10
2023-01-30T09:55:33.938Z,0.15
2023-01-30T09:57:36.537Z,-0.10
2023-01-30T10:00:05.565Z,-0.27
2023-01-30T10:02:52.248Z,-0.39
2023-01-30T10:05:01.773Z,-0.33
2023-01-30T10:07:10.766Z,-0.22
2023-01-30T10:09:29.965Z,-0.22
2023-01-30T10:12:08.229Z,-0.09
2023-01-30T10:14:20.633Z,0.10
2023-01-30T10:16:44.650Z,0.38
2023-01-30T10:19:36.451Z,0.19
2023-01-30T10:21:50.272Z,0.59
2023-01-30T10:24:05.402Z,0.77
2023-01-30T10:26:12.976Z,0.99
2023-01-30T10:28:18.183Z,1.08
2023-01-30T10:30:21.738Z,1.23
2023-01-30T10:32:44.974Z,1.40
2023-01-30T10:34:52.068Z,1.47
2023-01-30T10:37:14.471Z,1.45
2023-01-30T10:39:54.271Z,1.56
2023-01-30T10:42:27.752Z,1.46
2023-01-30T10:44:30.113Z,1.54
2023-01-30T10:46:32.509Z,1.45
2023-01-30T10:49:03.096Z,1.57
2023-01-30T10:51:33.292Z,1.21
2023-01-30T10:53:46.548Z,1.21
2023-01-30T10:55:52.807Z,1.41
2023-01-30T10:58:00.053Z,1.08
2023-01-30T11:00:17.822Z,1.17
2023-01-30T11:02:32.881Z,1.28
2023-01-30T11:04:48.355Z,1.18
2023-01-30T11:06:53.810Z,1.42
2023-01-30T11:08:56.759Z,1.74
2023-01-30T11:10:59.879Z,1.25
2023-01-30T11:13:18.516Z,1.00
2023-01-30T11:15:24.818Z,1.26
2023-01-30T11:17:37.443Z,1.33
2023-01-30T11:19:42.127Z,1.01
2023-01-30T11:22:00.991Z,0.94
2023-01-30T11:24:17.215Z,1.12
2023-01-30T11:26:45.570Z,1.07
2023-01-30T11:28:49.513Z,1.21
2023-01-30T11:31:00.513Z,1.41
2023-01-30T11:33:15.354Z,1.48
2023-01-30T11:35:23.796Z,1.78
2023-01-30T11:37:32.321Z,1.71
2023-01-30T11:39:35.545Z,1.98
2023-01-30T11:41:42.418Z,1.68
2023-01-30T11:43:45.058Z,1.90
2023-01-30T11:45:50.126Z,2.02
2023-01-30T11:48:04.741Z,2.22
2023-01-30T11:50:20.173Z,2.53
2023-01-30T11:52:37.874Z,2.30
2023-01-30T11:54:45.238Z,2.06
2023-01-30T11:56:54.601Z,2.01
2023-01-30T11:59:01.741Z,1.93
2023-01-30T12:01:05.435Z,1.93
2023-01-30T12:03:14.704Z,1.96
2023-01-30T12:05:25.234Z,2.03
2023-01-30T12:07:30.206Z,1.75
2023-01-30T12:09:36.403Z,1.88
2023-01-30T12:11:47.392Z,1.36
2023-01-30T12:13:52.033Z,1.34
2023-01-30T12:16:21.154Z,1.31
2023-01-30T12:18:25.274Z,1.36
2023-01-30T12:20:55.122Z,1.09
2023-01-30T12:23:17.081Z,1.17
2023-01-30T12:25:25.311Z,0.82
2023-01-30T12:27:33.731Z,0.77
2023-01-30T12:29:51.887Z,0.80
2023-01-30T12:32:19.624Z,0.78
2023-01-30T12:34:27.138Z,0.88
2023-01-30T12:36:59.704Z,0.92
2023-01-30T12:39:21.056Z,1.13
2023-01-30T12:41:42.505Z,1.35
2023-01-30T12:44:23.871Z,1.38
2023-01-30T12:46:44.766Z,1.61
2023-01-30T12:51:49.426Z,1.29
2023-01-30T12:54:21.228Z,1.39
2023-01-30T12:56:37.280Z,1.69
2023-01-30T12:58:50.363Z,1.53
2023-01-30T13:01:25.147Z,1.81
2023-01-30T13:03:46.063Z,1.57
2023-01-30T13:06:33.395Z,1.71
2023-01-30T13:08:57.928Z,1.63
2023-01-30T13:11:09.156Z,1.24
2023-01-30T13:13:43.149Z,1.27
2023-01-30T13:16:00.900Z,1.18
2023-01-30T13:18:17.885Z,1.36
2023-01-30T13:21:00.369Z,1.45
2023-01-30T13:23:03.477Z,1.20
2023-01-30T13:25:34.299Z,1.32
2023-01-30T13:27:40.553Z,1.42
2023-01-30T13:29:44.303Z,1.48
2023-01-30T13:31:54.791Z,1.30
2023-01-30T13:34:07.320Z,1.29
2023-01-30T13:36:12.979Z,1.30
2023-01-30T13:38:22.582Z,1.42
2023-01-30T13:40:33.044Z,1.52
2023-01-30T13:42:44.342Z,1.50
2023-01-30T13:44:49.241Z,1.39
2023-01-30T13:46:54.626Z,1.36
2023-01-30T13:49:16.111Z,1.30
2023-01-30T13:51:28.014Z,1.53
2023-01-30T13:53:39.909Z,1.41
2023-01-30T13:56:27.131Z,1.53
2023-01-30T13:58:35.667Z,1.74
2023-01-30T14:00:38.185Z,1.63
2023-01-30T14:03:03.335Z,1.71
2023-01-30T14:05:06.255Z,1.83
2023-01-30T14:07:24.341Z,1.72
2023-01-30T14:09:30.031Z,1.58
2023-01-30T14:11:39.024Z,1.71
2023-01-30T14:13:52.682Z,1.75
2023-01-30T14:16:01.310Z,1.81
2023-01-30T14:18:23.876Z,1.71
2023-01-30T14:20:32.759Z,1.66
2023-01-30T14:22:47.442Z,1.71
2023-01-30T14:25:27.560Z,1.75
2023-01-30T14:27:32.185Z,1.63
2023-01-30T14:29:41.613Z,1.71
2023-01-30T14:31:51.470Z,1.76
2023-01-30T14:33:53.893Z,1.58
2023-01-30T14:36:02.402Z,1.51
2023-01-30T14:38:05.421Z,1.52
2023-01-30T14:40:37.814Z,1.48
2023-01-30T14:42:40.484Z,1.31
2023-01-30T14:45:02.058Z,1.16
2023-01-30T14:47:33.405Z,1.15
2023-01-30T14:49:43.979Z,1.26
2023-01-30T14:51:47.953Z,1.35
2023-01-30T14:53:59.606Z,1.40
2023-01-30T14:56:04.078Z,1.53
2023-01-30T14:58:17.933Z,1.57
2023-01-30T15:00:26.289Z,1.49
2023-01-30T15:02:38.287Z,1.50
2023-01-30T15:04:40.605Z,1.65
2023-01-30T15:06:43.957Z,1.55
2023-01-30T15:08:47.619Z,1.48
2023-01-30T15:11:03.925Z,1.31
2023-01-30T15:13:09.260Z,1.37
2023-01-30T15:15:55.676Z,1.47
2023-01-30T15:18:08.272Z,1.46
2023-01-30T15:20:23.447Z,1.38
2023-01-30T15:22:35.071Z,1.39
2023-01-30T15:25:21.666Z,1.27
2023-01-30T15:27:46.544Z,1.19
2023-01-30T15:30:24.842Z,1.20
2023-01-30T15:32:30.014Z,1.24
2023-01-30T15:34:34.565Z,1.23
2023-01-30T15:36:38.904Z,1.09
2023-01-30T15:38:41.598Z,1.09
2023-01-30T15:40:44.036Z,1.03
2023-01-30T15:42:52.470Z,1.16
2023-01-30T15:45:16.030Z,1.15
2023-01-30T15:47:49.679Z,1.26
2023-01-30T15:49:56.102Z,1.31
2023-01-30T15:52:04.908Z,1.32
2023-01-30T15:54:15.141Z,1.24
2023-01-30T15:56:23.926Z,1.01
2023-01-30T15:58:27.792Z,1.01
2023-01-30T16:00:34.059Z,0.91
2023-01-30T16:02:37.744Z,0.94
2023-01-30T16:04:40.292Z,0.87
2023-01-30T16:06:42.607Z,0.86
2023-01-30T16:09:05.436Z,0.75
2023-01-30T16:11:07.891Z,0.80
2023-01-30T16:13:10.351Z,0.75
2023-01-30T16:15:19.719Z,0.71
2023-01-30T16:17:22.488Z,0.71
2023-01-30T16:19:37.982Z,0.80
2023-01-30T16:21:40.911Z,1.00
2023-01-30T16:23:57.654Z,1.03
2023-01-30T16:26:01.020Z,0.89
2023-01-30T16:28:04.332Z,1.05
2023-01-30T16:30:11.188Z,0.86
2023-01-30T16:32:14.876Z,0.74
2023-01-30T16:34:35.637Z,0.91
2023-01-30T16:36:40.860Z,0.90
2023-01-30T16:38:48.414Z,0.96
2023-01-30T16:40:51.909Z,0.91
2023-01-30T16:43:17.160Z,0.87
2023-01-30T16:45:21.604Z,0.77
2023-01-30T16:47:31.577Z,0.64
2023-01-30T16:49:37.075Z,0.62
2023-01-30T16:51:40.632Z,0.47
2023-01-30T16:53:58.254Z,0.41
2023-01-30T16:56:07.865Z,0.37
2023-01-30T16:58:17.472Z,0.35
2023-01-30T17:00:28.030Z,0.46
2023-01-30T17:02:37.572Z,0.45
2023-01-30T17:04:42.086Z,0.35
2023-01-30T17:06:53.287Z,0.47
2023-01-30T17:08:57.885Z,0.38
2023-01-30T17:11:02.329Z,0.24
2023-01-30T17:13:27.553Z,0.38
2023-01-30T17:15:35.464Z,0.39
2023-01-30T17:17:39.585Z,0.32
2023-01-30T17:19:46.738Z,0.24
2023-01-30T17:21:51.009Z,0.33
2023-01-30T17:24:02.843Z,0.32
2023-01-30T17:26:05.980Z,0.41
2023-01-30T17:28:12.620Z,0.27
2023-01-30T17:30:18.843Z,0.35
2023-01-30T17:32:22.905Z,0.43
2023-01-30T17:34:27.897Z,0.55
2023-01-30T17:36:31.478Z,0.66
2023-01-30T17:38:35.105Z,0.85
2023-01-30T17:40:38.867Z,0.98
2023-01-30T17:42:41.941Z,1.02
2023-01-30T17:44:45.420Z,1.05
2023-01-30T17:46:50.039Z,1.17
2023-01-30T17:48:56.718Z,1.28
2023-01-30T17:51:00.104Z,1.36
2023-01-30T17:53:03.888Z,1.38
2023-01-30T17:55:08.105Z,1.35
2023-01-30T17:57:16.669Z,1.44
2023-01-30T17:59:21.037Z,1.53
2023-01-30T18:01:23.722Z,1.72
2023-01-30T18:03:28.446Z,1.77
2023-01-30T18:05:31.288Z,1.80
2023-01-30T18:07:34.424Z,1.86
2023-01-30T18:09:40.366Z,1.92
2023-01-30T18:11:43.643Z,1.97
2023-01-30T18:13:49.300Z,1.86
2023-01-30T18:15:59.840Z,1.90
2023-01-30T18:18:04.110Z,1.94
2023-01-30T18:20:08.528Z,1.84
2023-01-30T18:22:12.362Z,1.88
2023-01-30T18:24:15.767Z,1.76
2023-01-30T18:26:20.289Z,1.80
2023-01-30T18:28:24.360Z,1.72
2023-01-30T18:30:27.946Z,1.79
2023-01-30T18:32:35.347Z,1.86
2023-01-30T18:34:40.824Z,1.92
2023-01-30T18:36:45.427Z,1.77
2023-01-30T18:38:49.346Z,1.76
2023-01-30T18:40:52.852Z,1.80
2023-01-30T18:42:56.349Z,1.75
2023-01-30T18:44:59.745Z,1.74
2023-01-30T18:47:06.445Z,1.76
2023-01-30T18:49:10.052Z,1.89
2023-01-30T18:51:21.994Z,1.99
2023-01-30T18:53:25.853Z,2.00
2023-01-30T18:55:30.058Z,1.99
2023-01-30T18:57:36.814Z,2.03
2023-01-30T18:59:41.676Z,1.96
2023-01-30T19:01:45.905Z,2.04
2023-01-30T19:03:49.631Z,2.15
2023-01-30T19:05:54.023Z,2.16
2023-01-30T19:07:57.214Z,2.26
2023-01-30T19:10:00.543Z,2.13
2023-01-30T19:12:43.083Z,2.08
2023-01-30T19:14:48.090Z,2.14
2023-01-30T19:16:52.166Z,2.11
2023-01-30T19:19:00.572Z,2.13
2023-01-30T19:21:04.620Z,2.12
2023-01-30T19:23:07.538Z,2.09
2023-01-30T19:25:13.019Z,2.16
2023-01-30T19:27:16.684Z,2.12
2023-01-30T19:29:20.963Z,2.26
2023-01-30T19:31:24.445Z,2.18
2023-01-30T19:33:27.717Z,2.33
2023-01-30T19:35:31.250Z,2.30
2023-01-30T19:37:39.672Z,2.36
2023-01-30T19:39:43.274Z,2.31
2023-01-30T19:41:47.201Z,2.32
2023-01-30T19:43:53.118Z,2.37
2023-01-30T19:46:02.032Z,2.45
2023-01-30T19:48:11.113Z,2.44
2023-01-30T19:50:14.917Z,2.59
2023-01-30T19:52:17.902Z,2.54
2023-01-30T19:54:24.987Z,2.53
2023-01-30T19:56:30.872Z,2.59
2023-01-30T19:58:37.281Z,2.66
2023-01-30T20:00:43.256Z,2.62
2023-01-30T20:02:51.031Z,2.67
2023-01-30T20:04:55.671Z,2.66
2023-01-30T20:06:59.447Z,2.67
2023-01-30T20:09:10.208Z,2.59
2023-01-30T20:11:15.854Z,2.58
2023-01-30T20:13:22.756Z,2.63
2023-01-30T20:15:35.777Z,2.69
2023-01-30T20:17:39.839Z,2.68
2023-01-30T20:19:43.998Z,2.71
2023-01-30T20:21:49.625Z,2.68
2023-01-30T20:23:57.129Z,2.73
2023-01-30T20:26:05.395Z,2.72
2023-01-30T20:28:09.037Z,2.76
2023-01-30T20:30:14.711Z,2.87
2023-01-30T20:32:19.673Z,2.89
2023-01-30T20:34:24.362Z,2.79
2023-01-30T20:36:29.563Z,2.80
2023-01-30T20:38:35.935Z,2.69
2023-01-30T20:40:40.204Z,2.72
2023-01-30T20:42:44.007Z,2.71
2023-01-30T20:44:49.161Z,2.68
2023-01-30T20:46:53.457Z,2.70
2023-01-30T20:48:58.871Z,2.69
2023-01-30T20:51:12.300Z,2.75
2023-01-30T20:53:16.374Z,2.75
2023-01-30T20:55:21.352Z,2.72
2023-01-30T20:57:25.394Z,2.70
2023-01-30T20:59:29.578Z,2.66
2023-01-30T21:01:33.505Z,2.68
2023-01-30T21:03:37.474Z,2.68
2023-01-30T21:05:40.812Z,2.64
2023-01-30T21:07:43.331Z,2.61
2023-01-30T21:09:46.721Z,2.78
2023-01-30T21:11:52.700Z,2.73
2023-01-30T21:13:55.599Z,2.85
2023-01-30T21:16:04.797Z,3.05
2023-01-30T21:18:07.846Z,3.24
2023-01-30T21:20:11.214Z,3.13
2023-01-30T21:22:14.137Z,3.11
2023-01-30T21:24:18.521Z,3.17
2023-01-30T21:26:24.802Z,3.20
2023-01-30T21:28:30.121Z,3.12
2023-01-30T21:30:36.842Z,3.12
2023-01-30T21:32:39.370Z,2.99
2023-01-30T21:34:42.000Z,2.96
2023-01-30T21:37:04.800Z,2.89
2023-01-30T21:39:26.557Z,2.77
2023-01-30T21:41:53.038Z,2.79
2023-01-30T21:43:55.670Z,2.74
2023-01-30T21:45:59.207Z,2.75
2023-01-30T21:48:01.602Z,2.75
2023-01-30T21:50:04.619Z,2.49
2023-01-30T21:52:07.059Z,2.74
2023-01-30T21:54:09.542Z,2.44
2023-01-30T21:56:12.163Z,2.34
2023-01-30T21:58:14.553Z,2.59
2023-01-30T22:00:17.369Z,2.42
2023-01-30T22:02:20.056Z,2.56
2023-01-30T22:04:22.431Z,2.32
2023-01-30T22:06:24.793Z,2.25
2023-01-30T22:08:28.190Z,2.29
2023-01-30T22:10:31.058Z,2.29
2023-01-30T22:12:33.421Z,2.45
2023-01-30T22:14:36.439Z,2.41
2023-01-30T22:16:39.704Z,2.54
2023-01-30T22:18:42.927Z,2.50
2023-01-30T22:20:45.546Z,2.58
2023-01-30T22:22:49.025Z,2.61
2023-01-30T22:24:51.360Z,2.78
2023-01-30T22:26:54.558Z,2.63
2023-01-30T22:28:58.571Z,2.65
2023-01-30T22:31:05.347Z,2.73
2023-01-30T22:33:08.016Z,2.70
2023-01-30T22:35:10.321Z,2.63
2023-01-30T22:37:12.873Z,2.60
2023-01-30T22:39:15.488Z,2.72
2023-01-30T22:41:23.256Z,2.76
2023-01-30T22:43:25.610Z,2.71
2023-01-30T22:45:28.255Z,2.88
2023-01-30T22:47:30.545Z,2.85
2023-01-30T22:49:32.859Z,2.84
2023-01-30T22:51:41.026Z,2.82
2023-01-30T22:53:47.894Z,2.78
2023-01-30T22:55:50.256Z,2.99
2023-01-30T22:57:52.880Z,2.84
2023-01-30T22:59:55.154Z,2.81
2023-01-30T23:01:57.651Z,2.78
